createdAt,value
2022-10-05T00:01:28.087Z,17.33
2022-10-05T00:04:03.774Z,17.33
2022-10-05T00:06:31.985Z,17.30
2022-10-05T00:09:02.353Z,17.33
2022-10-05T00:11:30.531Z,17.30
2022-10-05T00:14:00.896Z,17.32
2022-10-05T00:16:30.705Z,17.31
2022-10-05T00:19:01.184Z,17.30
2022-10-05T00:21:30.839Z,17.29
2022-10-05T00:24:02.870Z,17.29
2022-10-05T00:26:35.162Z,17.30
2022-10-05T00:29:17.301Z,17.29
2022-10-05T00:31:45.553Z,17.29
2022-10-05T00:34:13.705Z,17.29
2022-10-05T00:36:42.058Z,17.28
2022-10-05T00:39:10.644Z,17.28
2022-10-05T00:42:00.134Z,17.27
2022-10-05T00:44:43.315Z,17.25
2022-10-05T00:47:29.237Z,17.24
2022-10-05T00:50:23.093Z,17.23
2022-10-05T00:53:04.323Z,17.23
2022-10-05T00:55:44.518Z,17.23
2022-10-05T00:58:26.408Z,17.21
2022-10-05T01:01:11.335Z,17.19
2022-10-05T01:03:53.661Z,17.20
2022-10-05T01:06:30.860Z,17.20
2022-10-05T01:09:10.541Z,17.19
2022-10-05T01:11:44.831Z,17.18
2022-10-05T01:14:20.548Z,17.15
2022-10-05T01:16:55.603Z,17.16
2022-10-05T01:19:46.881Z,17.14
2022-10-05T01:22:30.476Z,17.14
2022-10-05T01:25:13.195Z,17.11
2022-10-05T01:27:53.514Z,17.05
2022-10-05T01:30:23.228Z,17.02
2022-10-05T01:33:01.084Z,16.98
2022-10-05T01:35:45.681Z,16.97
2022-10-05T01:38:33.681Z,16.96
2022-10-05T01:41:13.882Z,16.97
2022-10-05T01:43:49.262Z,16.98
2022-10-05T01:46:30.332Z,16.97
2022-10-05T01:49:18.901Z,16.98
2022-10-05T01:52:02.031Z,16.97
2022-10-05T01:54:41.176Z,16.96
2022-10-05T01:57:21.672Z,16.95
2022-10-05T02:00:06.563Z,16.96
2022-10-05T02:02:40.768Z,16.97
2022-10-05T02:05:16.243Z,16.99
2022-10-05T02:07:50.514Z,16.99
2022-10-05T02:10:25.443Z,17.00
2022-10-05T02:13:03.399Z,16.99
2022-10-05T02:15:41.224Z,17.00
2022-10-05T02:18:21.441Z,16.97
2022-10-05T02:20:56.738Z,16.95
2022-10-05T02:23:29.410Z,16.92
2022-10-05T02:26:00.003Z,16.87
2022-10-05T02:28:34.936Z,16.85
2022-10-05T02:31:10.803Z,16.85
2022-10-05T02:33:39.534Z,16.88
2022-10-05T02:36:15.941Z,16.90
2022-10-05T02:39:00.310Z,16.92
2022-10-05T02:41:44.050Z,16.90
2022-10-05T02:44:24.114Z,16.92
2022-10-05T02:47:00.750Z,16.92
2022-10-05T02:49:40.011Z,16.93
2022-10-05T02:52:15.399Z,16.93
2022-10-05T02:54:55.444Z,16.93
2022-10-05T02:57:32.071Z,16.92
2022-10-05T03:00:07.225Z,16.92
2022-10-05T03:02:42.521Z,16.93
2022-10-05T03:05:20.444Z,16.93
2022-10-05T03:07:56.906Z,16.93
2022-10-05T03:10:31.417Z,16.92
2022-10-05T03:13:07.553Z,16.92
2022-10-05T03:16:04.491Z,16.88
2022-10-05T03:18:53.592Z,16.86
2022-10-05T03:21:43.738Z,16.87
2022-10-05T03:24:28.559Z,16.86
2022-10-05T03:27:04.621Z,16.87
2022-10-05T03:29:41.475Z,16.87
2022-10-05T03:32:22.326Z,16.87
2022-10-05T03:34:58.283Z,16.87
2022-10-05T03:37:37.779Z,16.87
2022-10-05T03:40:16.510Z,16.86
2022-10-05T03:43:13.212Z,16.86
2022-10-05T03:45:51.181Z,16.85
2022-10-05T03:48:27.190Z,16.85
2022-10-05T03:51:09.396Z,16.83
2022-10-05T03:53:43.508Z,16.83
2022-10-05T03:56:17.983Z,16.85
2022-10-05T03:58:54.591Z,16.85
2022-10-05T04:01:37.207Z,16.86
2022-10-05T04:04:10.946Z,16.86
2022-10-05T04:06:47.429Z,16.85
2022-10-05T04:09:19.572Z,16.86
2022-10-05T04:11:53.884Z,16.86
2022-10-05T04:14:27.899Z,16.86
2022-10-05T04:17:01.230Z,16.85
2022-10-05T04:19:33.939Z,16.84
2022-10-05T04:22:11.031Z,16.85
2022-10-05T04:24:45.726Z,16.85
2022-10-05T04:27:19.524Z,16.84
2022-10-05T04:29:55.037Z,16.84
2022-10-05T04:32:37.563Z,16.83
2022-10-05T04:35:44.134Z,16.79
2022-10-05T04:38:31.296Z,16.76
2022-10-05T04:41:17.985Z,16.75
2022-10-05T04:44:02.911Z,16.76
2022-10-05T04:46:48.187Z,16.75
2022-10-05T04:49:35.641Z,16.75
2022-10-05T04:52:18.203Z,16.75
2022-10-05T04:55:05.465Z,16.75
2022-10-05T04:57:41.905Z,16.74
2022-10-05T05:00:24.914Z,16.73
2022-10-05T05:03:26.078Z,16.72
2022-10-05T05:06:18.324Z,16.72
2022-10-05T05:09:15.029Z,16.70
2022-10-05T05:12:03.927Z,16.68
2022-10-05T05:14:48.004Z,16.67
2022-10-05T05:17:35.106Z,16.67
2022-10-05T05:20:18.298Z,16.67
2022-10-05T05:22:53.972Z,16.65
2022-10-05T05:25:36.354Z,16.64
2022-10-05T05:28:18.932Z,16.62
2022-10-05T05:30:57.009Z,16.62
2022-10-05T05:33:31.121Z,16.60
2022-10-05T05:36:23.934Z,16.58
2022-10-05T05:39:07.532Z,16.56
2022-10-05T05:41:40.462Z,16.56
2022-10-05T05:44:22.584Z,16.55
2022-10-05T05:47:03.926Z,16.54
2022-10-05T05:49:48.099Z,16.54
2022-10-05T05:52:24.007Z,16.53
2022-10-05T05:54:59.180Z,16.53
2022-10-05T05:57:33.626Z,16.55
2022-10-05T06:00:19.511Z,16.55
2022-10-05T06:02:54.337Z,16.56
2022-10-05T06:05:31.829Z,16.58
2022-10-05T06:08:08.388Z,16.59
2022-10-05T06:10:43.713Z,16.58
2022-10-05T06:13:20.309Z,16.58
2022-10-05T06:15:55.315Z,16.60
2022-10-05T06:18:24.755Z,16.62
2022-10-05T06:20:59.897Z,16.64
2022-10-05T06:23:39.468Z,16.62
2022-10-05T06:26:26.047Z,16.63
2022-10-05T06:28:59.551Z,16.61
2022-10-05T06:31:59.075Z,16.60
2022-10-05T06:34:57.631Z,16.60
2022-10-05T06:37:46.002Z,16.63
2022-10-05T06:40:28.674Z,16.66
2022-10-05T06:43:17.024Z,16.67
2022-10-05T06:46:05.113Z,16.70
2022-10-05T06:48:51.914Z,16.71
2022-10-05T06:51:27.340Z,16.76
2022-10-05T06:54:04.561Z,16.78
2022-10-05T06:56:40.456Z,16.81
2022-10-05T06:59:15.170Z,16.82
2022-10-05T07:01:55.942Z,16.85
2022-10-05T07:04:53.614Z,16.86
2022-10-05T07:07:31.036Z,16.88
2022-10-05T07:10:17.302Z,16.87
2022-10-05T07:13:04.019Z,16.86
2022-10-05T07:15:43.817Z,16.85
2022-10-05T07:18:40.208Z,16.85
2022-10-05T07:21:21.758Z,16.85
2022-10-05T07:24:01.950Z,16.86
2022-10-05T07:26:36.738Z,16.90
2022-10-05T07:29:33.697Z,16.95
2022-10-05T07:32:15.689Z,16.98
2022-10-05T07:34:55.997Z,17.01
2022-10-05T07:37:53.382Z,17.05
2022-10-05T07:40:29.409Z,17.05
2022-10-05T07:43:14.394Z,17.04
2022-10-05T07:45:48.097Z,17.03
2022-10-05T07:48:21.994Z,17.00
2022-10-05T07:51:01.359Z,17.00
2022-10-05T07:53:38.512Z,17.01
2022-10-05T07:56:15.969Z,17.03
2022-10-05T07:58:48.401Z,17.08
2022-10-05T08:01:22.646Z,17.14
2022-10-05T08:03:55.414Z,17.19
2022-10-05T08:06:41.776Z,17.22
2022-10-05T08:09:31.691Z,17.29
2022-10-05T08:12:15.460Z,17.36
2022-10-05T08:14:53.745Z,17.42
2022-10-05T08:17:37.021Z,17.46
2022-10-05T08:20:20.075Z,17.57
2022-10-05T08:22:56.654Z,17.65
2022-10-05T08:25:35.844Z,17.74
2022-10-05T08:28:11.734Z,17.80
2022-10-05T08:30:55.681Z,17.85
2022-10-05T08:33:26.864Z,17.87
2022-10-05T08:36:05.722Z,17.86
2022-10-05T08:38:35.738Z,17.90
2022-10-05T08:41:59.104Z,17.94
2022-10-05T08:45:19.829Z,18.09
2022-10-05T08:48:45.843Z,18.26
2022-10-05T08:52:00.351Z,18.37
2022-10-05T08:54:48.029Z,18.51
2022-10-05T08:57:44.257Z,18.60
2022-10-05T09:00:18.668Z,18.69
2022-10-05T09:03:19.440Z,18.78
2022-10-05T09:06:26.617Z,18.86
2022-10-05T09:09:32.217Z,18.91
2022-10-05T09:12:44.290Z,19.05
2022-10-05T09:15:44.120Z,19.15
2022-10-05T09:18:50.649Z,19.21
2022-10-05T09:21:40.851Z,19.28
2022-10-05T09:24:26.182Z,19.27
2022-10-05T09:27:04.824Z,19.27
2022-10-05T09:30:23.231Z,19.28
2022-10-05T09:33:28.164Z,19.37
2022-10-05T09:37:07.343Z,19.41
2022-10-05T09:40:29.119Z,19.39
2022-10-05T09:43:45.183Z,19.50
2022-10-05T09:46:45.995Z,19.58
2022-10-05T09:49:48.162Z,19.63
2022-10-05T09:52:53.435Z,19.69
2022-10-05T09:55:50.704Z,19.68
2022-10-05T09:58:50.758Z,19.72
2022-10-05T10:02:22.244Z,19.77
2022-10-05T10:05:20.172Z,19.74
2022-10-05T10:08:11.450Z,19.70
2022-10-05T10:11:01.368Z,19.73
2022-10-05T10:14:17.619Z,19.79
2022-10-05T10:17:07.900Z,19.76
2022-10-05T10:20:14.631Z,19.71
2022-10-05T10:23:11.073Z,19.67
2022-10-05T10:26:25.479Z,19.68
2022-10-05T10:29:23.280Z,19.71
2022-10-05T10:32:14.130Z,19.68
2022-10-05T10:35:12.992Z,19.74
2022-10-05T10:38:24.771Z,19.74
2022-10-05T10:41:50.493Z,19.71
2022-10-05T10:45:21.209Z,19.64
2022-10-05T10:48:03.613Z,19.60
2022-10-05T10:51:13.552Z,19.61
2022-10-05T10:54:37.895Z,19.64
2022-10-05T10:57:10.740Z,19.64
2022-10-05T11:00:24.437Z,19.66
2022-10-05T11:03:45.544Z,19.71
2022-10-05T11:06:46.803Z,19.76
2022-10-05T11:09:33.894Z,19.77
2022-10-05T11:13:07.325Z,19.68
2022-10-05T11:16:00.536Z,19.65
2022-10-05T11:18:53.375Z,19.75
2022-10-05T11:21:34.222Z,19.83
2022-10-05T11:24:50.198Z,19.79
2022-10-05T11:27:40.395Z,19.75
2022-10-05T11:31:03.857Z,19.75
2022-10-05T11:34:31.267Z,19.76
2022-10-05T11:37:51.812Z,19.72
2022-10-05T11:41:12.624Z,19.69
2022-10-05T11:44:20.013Z,19.67
2022-10-05T11:46:58.439Z,19.73
2022-10-05T11:49:37.479Z,19.81
2022-10-05T11:52:14.218Z,19.85
2022-10-05T11:55:17.672Z,19.85
2022-10-05T11:57:52.787Z,19.85
2022-10-05T12:00:24.000Z,19.83
2022-10-05T12:03:11.558Z,19.81
2022-10-05T12:05:52.751Z,19.75
2022-10-05T12:08:37.405Z,19.74
2022-10-05T12:11:24.045Z,19.79
2022-10-05T12:13:59.065Z,19.76
2022-10-05T12:16:34.263Z,19.71
2022-10-05T12:19:13.515Z,19.67
2022-10-05T12:21:49.887Z,19.70
2022-10-05T12:24:28.075Z,19.71
2022-10-05T12:27:01.274Z,19.70
2022-10-05T12:29:38.850Z,19.68
2022-10-05T12:32:17.057Z,19.64
2022-10-05T12:35:01.800Z,19.61
2022-10-05T12:37:43.424Z,19.61
2022-10-05T12:40:34.902Z,19.65
2022-10-05T12:43:13.241Z,19.67
2022-10-05T12:46:00.283Z,19.62
2022-10-05T12:49:16.211Z,19.60
2022-10-05T12:51:49.386Z,19.62
2022-10-05T12:54:25.916Z,19.68
2022-10-05T12:56:59.127Z,19.71
2022-10-05T12:59:41.814Z,19.73
2022-10-05T13:02:29.456Z,19.69
2022-10-05T13:05:06.070Z,19.71
2022-10-05T13:07:49.295Z,19.73
2022-10-05T13:10:32.493Z,19.73
2022-10-05T13:13:18.491Z,19.74
2022-10-05T13:15:53.272Z,19.73
2022-10-05T13:18:31.145Z,19.72
2022-10-05T13:21:07.289Z,19.70
2022-10-05T13:23:53.801Z,19.69
2022-10-05T13:26:34.540Z,19.73
2022-10-05T13:29:16.855Z,19.77
2022-10-05T13:31:49.196Z,19.86
2022-10-05T13:34:28.035Z,19.96
2022-10-05T13:37:10.664Z,20.11
2022-10-05T13:40:00.147Z,20.23
2022-10-05T13:42:37.849Z,20.32
2022-10-05T13:45:15.126Z,20.39
2022-10-05T13:47:58.018Z,20.43
2022-10-05T13:50:33.441Z,20.50
2022-10-05T13:53:14.828Z,20.57
2022-10-05T13:55:50.075Z,20.61
2022-10-05T13:58:33.666Z,20.61
2022-10-05T14:01:06.497Z,20.54
2022-10-05T14:03:37.476Z,20.49
2022-10-05T14:06:13.960Z,20.49
2022-10-05T14:08:52.997Z,20.44
2022-10-05T14:11:32.147Z,20.42
2022-10-05T14:14:16.299Z,20.45
2022-10-05T14:16:54.415Z,20.49
2022-10-05T14:19:28.991Z,20.57
2022-10-05T14:22:02.363Z,20.70
2022-10-05T14:24:49.185Z,20.79
2022-10-05T14:27:26.967Z,20.81
2022-10-05T14:30:00.754Z,20.85
2022-10-05T14:32:33.050Z,20.86
2022-10-05T14:35:14.113Z,20.92
2022-10-05T14:37:51.911Z,20.97
2022-10-05T14:40:30.968Z,20.94
2022-10-05T14:43:01.764Z,20.95
2022-10-05T14:45:33.325Z,20.91
2022-10-05T14:48:12.278Z,20.87
2022-10-05T14:50:55.530Z,20.82
2022-10-05T14:53:26.362Z,20.71
2022-10-05T14:56:53.187Z,20.64
2022-10-05T14:59:37.370Z,20.52
2022-10-05T15:02:35.251Z,20.45
2022-10-05T15:05:14.345Z,20.39
2022-10-05T15:07:44.972Z,20.34
2022-10-05T15:10:29.871Z,20.30
2022-10-05T15:13:11.494Z,20.26
2022-10-05T15:15:48.785Z,20.23
2022-10-05T15:18:32.364Z,20.19
2022-10-05T15:21:26.445Z,20.14
2022-10-05T15:23:58.623Z,20.16
2022-10-05T15:26:44.163Z,20.11
2022-10-05T15:29:32.878Z,20.04
2022-10-05T15:32:15.808Z,20.00
2022-10-05T15:35:07.139Z,19.93
2022-10-05T15:37:43.127Z,19.89
2022-10-05T15:40:23.008Z,19.82
2022-10-05T15:42:57.691Z,19.75
2022-10-05T15:45:32.752Z,19.69
2022-10-05T15:48:04.779Z,19.65
2022-10-05T15:50:44.429Z,19.61
2022-10-05T15:53:21.280Z,19.64
2022-10-05T15:55:55.805Z,19.79
2022-10-05T15:58:51.436Z,19.87
2022-10-05T16:01:27.565Z,19.86
2022-10-05T16:04:02.369Z,19.80
2022-10-05T16:06:56.722Z,19.72
2022-10-05T16:09:56.153Z,19.70
2022-10-05T16:12:38.619Z,19.71
2022-10-05T16:15:26.369Z,19.55
2022-10-05T16:18:43.694Z,19.31
2022-10-05T16:21:26.872Z,19.17
2022-10-05T16:24:15.562Z,19.15
2022-10-05T16:26:58.803Z,19.11
2022-10-05T16:29:40.737Z,19.14
2022-10-05T16:32:15.289Z,19.11
2022-10-05T16:35:02.682Z,19.11
2022-10-05T16:37:41.199Z,19.10
2022-10-05T16:40:20.930Z,19.09
2022-10-05T16:43:07.260Z,19.09
2022-10-05T16:45:51.747Z,19.08
2022-10-05T16:48:26.817Z,19.07
2022-10-05T16:51:11.533Z,19.07
2022-10-05T16:53:46.442Z,19.06
2022-10-05T16:56:23.354Z,19.06
2022-10-05T16:59:06.993Z,19.04
2022-10-05T17:01:52.227Z,19.05
2022-10-05T17:04:41.824Z,19.06
2022-10-05T17:07:44.395Z,19.05
2022-10-05T17:10:40.314Z,19.04
2022-10-05T17:13:28.444Z,19.04
2022-10-05T17:16:09.164Z,19.06
2022-10-05T17:19:27.843Z,19.05
2022-10-05T17:22:00.586Z,19.06
2022-10-05T17:24:42.958Z,19.07
2022-10-05T17:27:36.137Z,19.06
2022-10-05T17:31:09.804Z,19.05
2022-10-05T17:34:30.040Z,19.07
2022-10-05T17:37:04.758Z,19.08
2022-10-05T17:39:52.349Z,19.09
2022-10-05T17:42:47.266Z,19.08
2022-10-05T17:45:54.633Z,19.06
2022-10-05T17:49:06.697Z,19.07
2022-10-05T17:52:43.057Z,19.06
2022-10-05T17:55:30.146Z,19.07
2022-10-05T17:58:01.487Z,19.08
2022-10-05T18:00:44.373Z,19.09
2022-10-05T18:03:40.984Z,19.09
2022-10-05T18:06:37.347Z,19.08
2022-10-05T18:09:36.597Z,19.08
2022-10-05T18:12:45.197Z,19.08
2022-10-05T18:15:46.515Z,19.08
2022-10-05T18:18:56.361Z,19.08
2022-10-05T18:21:40.046Z,19.09
2022-10-05T18:25:05.721Z,19.07
2022-10-05T18:28:09.904Z,19.06
2022-10-05T18:30:58.639Z,19.07
2022-10-05T18:33:59.631Z,19.06
2022-10-05T18:37:03.407Z,19.07
2022-10-05T18:39:51.489Z,19.06
2022-10-05T18:42:28.718Z,19.07
2022-10-05T18:45:01.524Z,19.05
2022-10-05T18:47:40.438Z,19.07
2022-10-05T18:50:28.498Z,19.06
2022-10-05T18:53:18.030Z,19.03
2022-10-05T18:55:55.139Z,19.05
2022-10-05T18:58:31.227Z,19.02
2022-10-05T19:01:27.951Z,18.99
2022-10-05T19:04:14.049Z,18.97
2022-10-05T19:06:54.352Z,18.96
2022-10-05T19:09:45.174Z,18.95
2022-10-05T19:12:29.267Z,18.94
2022-10-05T19:15:11.896Z,18.94
2022-10-05T19:18:26.667Z,18.94
2022-10-05T19:21:03.903Z,18.92
2022-10-05T19:24:15.548Z,18.91
2022-10-05T19:27:02.667Z,18.89
2022-10-05T19:29:48.425Z,18.88
2022-10-05T19:32:26.207Z,18.88
2022-10-05T19:35:10.452Z,18.87
2022-10-05T19:37:47.964Z,18.87
2022-10-05T19:40:29.230Z,18.77
2022-10-05T19:43:23.835Z,18.47
2022-10-05T19:46:08.833Z,18.01
2022-10-05T19:48:44.382Z,17.64
2022-10-05T19:51:16.686Z,17.40
2022-10-05T19:53:50.455Z,17.24
2022-10-05T19:56:21.210Z,17.12
2022-10-05T19:58:51.897Z,16.98
2022-10-05T20:01:30.846Z,16.88
2022-10-05T20:03:59.395Z,16.79
2022-10-05T20:06:29.573Z,16.69
2022-10-05T20:09:03.732Z,16.62
2022-10-05T20:11:34.688Z,16.53
2022-10-05T20:14:20.928Z,16.45
2022-10-05T20:17:44.564Z,16.39
2022-10-05T20:20:32.168Z,16.35
2022-10-05T20:23:23.242Z,16.34
2022-10-05T20:26:05.533Z,16.32
2022-10-05T20:28:34.234Z,16.29
2022-10-05T20:31:02.593Z,16.26
2022-10-05T20:33:34.282Z,16.23
2022-10-05T20:36:03.899Z,16.21
2022-10-05T20:38:40.634Z,16.15
2022-10-05T20:41:09.497Z,16.14
2022-10-05T20:43:39.317Z,16.10
2022-10-05T20:46:07.965Z,16.07
2022-10-05T20:48:37.399Z,16.06
2022-10-05T20:51:05.883Z,16.08
2022-10-05T20:53:34.046Z,16.05
2022-10-05T20:56:02.398Z,16.01
2022-10-05T20:58:30.965Z,15.96
2022-10-05T21:01:18.402Z,15.94
2022-10-05T21:03:48.323Z,15.89
2022-10-05T21:06:17.872Z,15.86
2022-10-05T21:08:46.294Z,15.84
2022-10-05T21:11:15.131Z,15.83
2022-10-05T21:13:44.761Z,15.81
2022-10-05T21:16:14.008Z,15.78
2022-10-05T21:18:44.385Z,15.76
2022-10-05T21:21:14.276Z,15.75
2022-10-05T21:23:42.356Z,15.75
2022-10-05T21:26:11.700Z,15.71
2022-10-05T21:28:40.268Z,15.69
2022-10-05T21:31:08.927Z,15.69
2022-10-05T21:33:37.524Z,15.68
2022-10-05T21:36:06.106Z,15.62
2022-10-05T21:38:36.610Z,15.44
2022-10-05T21:41:05.008Z,15.26
2022-10-05T21:43:33.487Z,15.04
2022-10-05T21:46:02.215Z,14.85
2022-10-05T21:48:32.175Z,14.70
2022-10-05T21:51:01.259Z,14.61
2022-10-05T21:53:36.953Z,14.57
2022-10-05T21:56:10.840Z,14.60
2022-10-05T21:58:40.193Z,14.68
2022-10-05T22:01:08.971Z,14.71
2022-10-05T22:03:38.002Z,14.73
2022-10-05T22:06:06.916Z,14.76
2022-10-05T22:08:36.687Z,14.79
2022-10-05T22:11:13.110Z,14.85
2022-10-05T22:13:44.604Z,14.89
2022-10-05T22:16:13.647Z,14.92
2022-10-05T22:18:42.541Z,14.96
2022-10-05T22:21:13.007Z,14.96
2022-10-05T22:23:44.954Z,14.94
2022-10-05T22:26:16.662Z,14.91
2022-10-05T22:28:46.683Z,14.89
2022-10-05T22:31:15.327Z,14.87
2022-10-05T22:33:43.948Z,14.86
2022-10-05T22:36:12.070Z,14.83
2022-10-05T22:38:40.207Z,14.80
2022-10-05T22:41:12.507Z,14.79
2022-10-05T22:43:40.986Z,14.79
2022-10-05T22:46:10.801Z,14.79
2022-10-05T22:48:39.087Z,14.77
2022-10-05T22:51:07.916Z,14.76
2022-10-05T22:53:36.546Z,14.75
2022-10-05T22:56:10.402Z,14.74
2022-10-05T22:58:40.904Z,14.71
2022-10-05T23:01:11.436Z,14.69
2022-10-05T23:03:40.319Z,14.66
2022-10-05T23:06:10.873Z,14.62
2022-10-05T23:08:41.634Z,14.57
2022-10-05T23:11:12.336Z,14.57
2022-10-05T23:13:42.289Z,14.57
2022-10-05T23:16:13.637Z,14.61
2022-10-05T23:18:45.365Z,14.63
2022-10-05T23:21:13.812Z,14.60
2022-10-05T23:23:47.243Z,14.56
2022-10-05T23:26:16.742Z,14.52
2022-10-05T23:28:47.525Z,14.49
2022-10-05T23:31:18.007Z,14.47
2022-10-05T23:33:46.258Z,14.45
2022-10-05T23:36:17.163Z,14.42
2022-10-05T23:38:46.444Z,14.43
2022-10-05T23:41:15.972Z,14.39
2022-10-05T23:43:45.494Z,14.37
2022-10-05T23:46:15.221Z,14.31
2022-10-05T23:48:43.436Z,14.27
2022-10-05T23:51:14.169Z,14.22
2022-10-05T23:53:42.322Z,14.16
2022-10-05T23:56:10.414Z,14.12
2022-10-05T23:58:38.540Z,14.08
